createdAt,value
2017-08-01T00:00:11.357Z,1000.9
2017-08-01T00:01:12.856Z,1001.0
2017-08-01T00:02:14.354Z,1001.1
2017-08-01T00:03:15.886Z,1001.2
2017-08-01T00:04:17.397Z,1001.2
2017-08-01T00:05:18.917Z,1001.2
2017-08-01T00:06:20.428Z,1001.3
2017-08-01T00:07:21.939Z,1001.3
2017-08-01T00:08:23.435Z,1001.3
2017-08-01T00:09:24.950Z,1001.3
2017-08-01T00:10:26.576Z,1001.3
2017-08-01T00:11:28.106Z,1001.3
2017-08-01T00:12:29.608Z,1001.3
2017-08-01T00:13:31.035Z,1001.2
2017-08-01T00:14:32.547Z,1001.1
2017-08-01T00:15:34.128Z,1001.1
2017-08-01T00:16:35.641Z,1001.1
2017-08-01T00:17:37.155Z,1001.1
2017-08-01T00:18:38.570Z,1001.0
2017-08-01T00:19:40.038Z,1001.0
2017-08-01T00:20:41.556Z,1001.0
2017-08-01T00:21:43.060Z,1000.9
2017-08-01T00:22:44.573Z,1001.0
2017-08-01T00:23:46.111Z,1001.0
2017-08-01T00:24:47.612Z,1001.0
2017-08-01T00:25:49.229Z,1001.0
2017-08-01T00:26:50.739Z,1000.9
2017-08-01T00:27:52.254Z,1000.9
2017-08-01T00:28:53.690Z,1000.8
2017-08-01T00:29:55.187Z,1000.7
2017-08-01T00:30:56.794Z,1000.6
2017-08-01T00:31:58.285Z,1000.4
2017-08-01T00:32:59.794Z,1000.3
2017-08-01T00:34:01.227Z,1000.2
2017-08-01T00:35:02.696Z,1000.1
2017-08-01T00:36:04.188Z,1000.1
2017-08-01T00:37:05.692Z,1000.1
2017-08-01T00:38:07.195Z,1000.1
2017-08-01T00:39:08.688Z,1000.1
2017-08-01T00:40:10.187Z,1000.0
2017-08-01T00:41:11.691Z,999.9
2017-08-01T00:42:13.235Z,999.9
2017-08-01T00:43:14.734Z,999.9
2017-08-01T00:44:16.230Z,999.9
2017-08-01T00:45:17.727Z,999.9
2017-08-01T00:46:19.237Z,1000.0
2017-08-01T00:47:20.660Z,999.9
2017-08-01T00:48:22.120Z,999.7
2017-08-01T00:49:23.651Z,999.7
2017-08-01T00:50:25.149Z,999.7
2017-08-01T00:51:26.662Z,999.8
2017-08-01T00:52:28.169Z,999.8
2017-08-01T00:53:29.671Z,999.8
2017-08-01T00:54:31.174Z,999.9
2017-08-01T00:55:32.675Z,999.9
2017-08-01T00:56:34.168Z,999.9
2017-08-01T00:57:35.674Z,1000.0
2017-08-01T00:58:37.175Z,1000.1
2017-08-01T00:59:38.684Z,1000.2
2017-08-01T01:00:40.112Z,1000.2
2017-08-01T01:01:41.629Z,1000.3
2017-08-01T01:02:43.180Z,1000.3
2017-08-01T01:03:44.688Z,1000.3
2017-08-01T01:04:46.183Z,1000.3
2017-08-01T01:05:47.607Z,1000.4
2017-08-01T01:06:49.101Z,1000.4
2017-08-01T01:07:50.750Z,1000.4
2017-08-01T01:08:52.251Z,1000.5
2017-08-01T01:09:53.754Z,1000.5
2017-08-01T01:10:55.200Z,1000.5
2017-08-01T01:11:56.724Z,1000.5
2017-08-01T01:12:58.297Z,1000.5
2017-08-01T01:13:59.815Z,1000.5
2017-08-01T01:15:01.321Z,1000.5
2017-08-01T01:16:02.753Z,1000.4
2017-08-01T01:17:04.264Z,1000.4
2017-08-01T01:18:05.837Z,1000.3
2017-08-01T01:19:07.341Z,1000.3
2017-08-01T01:20:08.848Z,1000.2
2017-08-01T01:21:10.266Z,1000.2
2017-08-01T01:22:11.780Z,1000.2
2017-08-01T01:23:13.390Z,1000.3
2017-08-01T01:24:14.916Z,1000.2
2017-08-01T01:25:16.436Z,1000.1
2017-08-01T01:26:17.972Z,1000.1
2017-08-01T01:27:19.328Z,999.9
2017-08-01T01:28:20.993Z,999.8
2017-08-01T01:29:22.503Z,999.7
2017-08-01T01:30:24.017Z,999.5
2017-08-01T01:31:25.532Z,999.5
2017-08-01T01:32:27.031Z,999.5
2017-08-01T01:33:28.539Z,999.6
2017-08-01T01:34:30.043Z,999.6
2017-08-01T01:35:31.562Z,999.5
2017-08-01T01:36:33.062Z,999.7
2017-08-01T01:37:34.562Z,999.8
2017-08-01T01:38:36.104Z,999.9
2017-08-01T01:39:37.644Z,999.8
2017-08-01T01:40:39.365Z,999.6
2017-08-01T01:41:40.879Z,999.4
2017-08-01T01:42:42.413Z,999.3
2017-08-01T01:43:43.959Z,999.4
2017-08-01T01:44:45.495Z,999.5
2017-08-01T01:45:46.921Z,999.6
2017-08-01T01:46:48.402Z,999.5
2017-08-01T01:47:49.899Z,999.5
2017-08-01T01:48:51.411Z,999.5
2017-08-01T01:49:52.946Z,999.6
2017-08-01T01:50:54.435Z,999.6
2017-08-01T01:51:55.943Z,999.6
2017-08-01T01:52:57.637Z,999.6
2017-08-01T01:53:59.170Z,999.7
2017-08-01T01:55:00.696Z,999.7
2017-08-01T01:56:02.240Z,999.7
2017-08-01T01:57:03.760Z,999.7
2017-08-01T01:58:05.234Z,999.7
2017-08-01T01:59:06.725Z,999.8
2017-08-01T02:00:08.253Z,999.8
2017-08-01T02:01:09.792Z,999.8
2017-08-01T02:02:11.391Z,999.8
2017-08-01T02:03:12.940Z,999.8
2017-08-01T02:04:14.489Z,999.9
2017-08-01T02:05:16.014Z,999.9
2017-08-01T02:06:17.537Z,1000.0
2017-08-01T02:07:19.134Z,1000.0
2017-08-01T02:08:20.643Z,1000.0
2017-08-01T02:09:22.190Z,999.9
2017-08-01T02:10:23.720Z,999.9
2017-08-01T02:11:25.230Z,999.9
2017-08-01T02:12:26.741Z,999.9
2017-08-01T02:13:28.255Z,999.9
2017-08-01T02:14:29.895Z,999.8
2017-08-01T02:15:31.415Z,999.9
2017-08-01T02:16:32.944Z,999.9
2017-08-01T02:17:34.468Z,999.9
2017-08-01T02:18:35.840Z,999.9
2017-08-01T02:19:37.457Z,999.8
2017-08-01T02:20:38.982Z,999.8
2017-08-01T02:21:40.498Z,999.8
2017-08-01T02:22:42.018Z,999.8
2017-08-01T02:23:43.432Z,999.8
2017-08-01T02:24:45.045Z,999.8
2017-08-01T02:25:46.548Z,999.8
2017-08-01T02:26:48.086Z,999.7
2017-08-01T02:27:49.624Z,999.6
2017-08-01T02:28:51.151Z,999.6
2017-08-01T02:29:52.589Z,999.5
2017-08-01T02:30:54.102Z,999.5
2017-08-01T02:31:55.650Z,999.5
2017-08-01T02:32:57.132Z,999.4
2017-08-01T02:33:58.648Z,999.4
2017-08-01T02:35:00.163Z,999.4
2017-08-01T02:36:01.687Z,999.5
2017-08-01T02:37:03.679Z,999.6
2017-08-01T02:38:05.187Z,999.6
2017-08-01T02:39:06.605Z,999.7
2017-08-01T02:40:08.105Z,999.7
2017-08-01T02:41:09.610Z,999.7
2017-08-01T02:42:11.125Z,999.8
2017-08-01T02:43:12.623Z,999.7
2017-08-01T02:44:14.115Z,999.7
2017-08-01T02:45:15.619Z,999.7
2017-08-01T02:46:17.121Z,999.8
2017-08-01T02:47:18.548Z,999.8
2017-08-01T02:48:20.054Z,999.8
2017-08-01T02:49:21.635Z,999.7
2017-08-01T02:50:23.161Z,999.6
2017-08-01T02:51:24.669Z,999.5
2017-08-01T02:52:26.099Z,999.5
2017-08-01T02:53:27.564Z,999.6
2017-08-01T02:54:29.186Z,999.6
2017-08-01T02:55:30.681Z,999.8
2017-08-01T02:56:32.190Z,1000.0
2017-08-01T02:57:33.614Z,1000.0
2017-08-01T02:58:35.152Z,1000.1
2017-08-01T02:59:36.736Z,1000.1
2017-08-01T03:00:38.231Z,1000.1
2017-08-01T03:01:39.748Z,1000.0
2017-08-01T03:02:41.323Z,999.9
2017-08-01T03:03:42.815Z,1000.0
2017-08-01T03:04:44.306Z,1000.0
2017-08-01T03:05:45.812Z,1000.1
2017-08-01T03:06:47.324Z,1000.0
2017-08-01T03:07:48.877Z,1000.1
2017-08-01T03:08:50.381Z,1000.2
2017-08-01T03:09:51.896Z,1000.2
2017-08-01T03:10:53.414Z,1000.2
2017-08-01T03:11:54.969Z,1000.1
2017-08-01T03:12:56.489Z,1000.0
2017-08-01T03:13:58.001Z,1000.0
2017-08-01T03:14:59.425Z,1000.0
2017-08-01T03:16:00.932Z,999.8
2017-08-01T03:17:02.443Z,999.7
2017-08-01T03:18:03.946Z,999.7
2017-08-01T03:19:05.327Z,999.7
2017-08-01T03:20:06.962Z,999.9
2017-08-01T03:21:08.472Z,999.9
2017-08-01T03:22:09.998Z,999.8
2017-08-01T03:23:11.509Z,999.7
2017-08-01T03:24:12.875Z,999.6
2017-08-01T03:25:14.545Z,999.6
2017-08-01T03:26:16.049Z,999.6
2017-08-01T03:27:17.570Z,999.7
2017-08-01T03:28:19.071Z,999.6
2017-08-01T03:29:20.576Z,999.5
2017-08-01T03:30:22.065Z,999.6
2017-08-01T03:31:23.592Z,999.6
2017-08-01T03:32:25.088Z,999.5
2017-08-01T03:33:26.513Z,999.6
2017-08-01T03:34:28.011Z,999.7
2017-08-01T03:35:29.597Z,999.6
2017-08-01T03:36:31.106Z,999.6
2017-08-01T03:37:32.615Z,999.6
2017-08-01T03:38:34.147Z,999.7
2017-08-01T03:39:35.557Z,999.7
2017-08-01T03:40:37.143Z,999.7
2017-08-01T03:41:38.645Z,999.6
2017-08-01T03:42:40.160Z,999.5
2017-08-01T03:43:41.592Z,999.4
2017-08-01T03:44:43.042Z,999.3
2017-08-01T03:45:44.539Z,999.2
2017-08-01T03:46:46.037Z,999.3
2017-08-01T03:47:47.555Z,999.3
2017-08-01T03:48:49.073Z,999.3
2017-08-01T03:49:50.591Z,999.2
2017-08-01T03:50:52.095Z,999.3
2017-08-01T03:51:53.600Z,999.2
2017-08-01T03:52:55.092Z,999.2
2017-08-01T03:53:56.586Z,999.1
2017-08-01T03:54:58.096Z,999.1
2017-08-01T03:55:59.599Z,999.1
2017-08-01T03:57:01.021Z,999.1
2017-08-01T03:58:02.481Z,999.0
2017-08-01T03:59:03.993Z,999.0
2017-08-01T04:00:05.488Z,998.9
2017-08-01T04:01:06.982Z,998.9
2017-08-01T04:02:08.487Z,998.8
2017-08-01T04:03:09.986Z,998.8
2017-08-01T04:04:11.487Z,998.8
2017-08-01T04:05:13.017Z,998.9
2017-08-01T04:06:14.386Z,998.9
2017-08-01T04:07:16.070Z,998.9
2017-08-01T04:08:17.568Z,998.9
2017-08-01T04:09:19.067Z,998.9
2017-08-01T04:10:20.569Z,999.0
2017-08-01T04:11:22.091Z,999.0
2017-08-01T04:12:23.602Z,998.9
2017-08-01T04:13:25.108Z,998.9
2017-08-01T04:14:26.630Z,998.9
2017-08-01T04:15:28.126Z,998.9
2017-08-01T04:16:29.641Z,998.9
2017-08-01T04:17:31.166Z,998.9
2017-08-01T04:18:32.660Z,998.9
2017-08-01T04:19:34.164Z,999.0
2017-08-01T04:20:35.669Z,999.0
2017-08-01T04:21:37.196Z,999.0
2017-08-01T04:22:38.716Z,999.0
2017-08-01T04:23:40.218Z,999.1
2017-08-01T04:24:41.726Z,999.1
2017-08-01T04:25:43.235Z,999.2
2017-08-01T04:26:44.741Z,999.2
2017-08-01T04:27:46.269Z,999.3
2017-08-01T04:28:47.775Z,999.3
2017-08-01T04:29:49.313Z,999.3
2017-08-01T04:30:50.816Z,999.4
2017-08-01T04:31:52.330Z,999.4
2017-08-01T04:32:53.840Z,999.4
2017-08-01T04:33:55.372Z,999.4
2017-08-01T04:34:57.001Z,999.4
2017-08-01T04:35:58.506Z,999.6
2017-08-01T04:37:00.010Z,999.6
2017-08-01T04:38:01.530Z,999.7
2017-08-01T04:39:02.926Z,999.7
2017-08-01T04:40:04.586Z,999.8
2017-08-01T04:41:06.083Z,999.9
2017-08-01T04:42:07.591Z,1000.0
2017-08-01T04:43:09.205Z,1000.1
2017-08-01T04:44:10.735Z,1000.2
2017-08-01T04:45:12.187Z,1000.3
2017-08-01T04:46:13.674Z,1000.4
2017-08-01T04:47:15.198Z,1000.4
2017-08-01T04:48:16.728Z,1000.5
2017-08-01T04:49:18.240Z,1000.5
2017-08-01T04:50:19.680Z,1000.6
2017-08-01T04:51:21.203Z,1000.6
2017-08-01T04:52:22.851Z,1000.7
2017-08-01T04:53:24.398Z,1000.8
2017-08-01T04:54:25.923Z,1000.8
2017-08-01T04:55:27.437Z,1000.9
2017-08-01T04:56:28.939Z,1001.1
2017-08-01T04:57:30.463Z,1001.2
2017-08-01T04:58:32.002Z,1001.3
2017-08-01T04:59:33.659Z,1001.3
2017-08-01T05:00:35.199Z,1001.3
2017-08-01T05:01:36.750Z,1001.2
2017-08-01T05:02:38.273Z,1001.1
2017-08-01T05:03:39.774Z,1001.0
2017-08-01T05:04:41.201Z,1000.8
2017-08-01T05:05:42.718Z,1000.7
2017-08-01T05:06:44.228Z,1000.5
2017-08-01T05:07:45.733Z,1000.5
2017-08-01T05:08:47.385Z,1000.5
2017-08-01T05:09:48.811Z,1000.5
2017-08-01T05:10:50.329Z,1000.5
2017-08-01T05:11:51.932Z,1000.5
2017-08-01T05:12:53.447Z,1000.4
2017-08-01T05:13:54.981Z,1000.3
2017-08-01T05:14:56.399Z,1000.2
2017-08-01T05:15:57.908Z,1000.0
2017-08-01T05:16:59.511Z,999.7
2017-08-01T05:18:01.022Z,999.5
2017-08-01T05:19:02.526Z,999.2
2017-08-01T05:20:04.048Z,999.0
2017-08-01T05:21:05.444Z,998.8
2017-08-01T05:22:07.039Z,998.6
2017-08-01T05:23:08.547Z,998.6
2017-08-01T05:24:10.092Z,998.6
2017-08-01T05:25:11.505Z,998.6
2017-08-01T05:26:13.024Z,998.6
2017-08-01T05:27:14.479Z,998.7
2017-08-01T05:28:15.999Z,998.7
2017-08-01T05:29:17.501Z,998.6
2017-08-01T05:30:19.018Z,998.5
2017-08-01T05:31:20.528Z,998.4
2017-08-01T05:32:22.180Z,998.5
2017-08-01T05:33:23.695Z,998.5
2017-08-01T05:34:25.230Z,998.4
2017-08-01T05:35:26.732Z,998.4
2017-08-01T05:36:28.252Z,998.4
2017-08-01T05:37:29.755Z,998.5
2017-08-01T05:38:31.278Z,998.7
2017-08-01T05:39:32.954Z,998.9
2017-08-01T05:40:34.468Z,999.0
2017-08-01T05:41:35.981Z,999.1
2017-08-01T05:42:37.504Z,999.1
2017-08-01T05:43:39.078Z,999.1
2017-08-01T05:44:40.513Z,999.1
2017-08-01T05:45:42.019Z,999.2
2017-08-01T05:46:43.541Z,999.2
2017-08-01T05:47:45.058Z,999.3
2017-08-01T05:48:46.591Z,999.4
2017-08-01T05:49:48.117Z,999.3
2017-08-01T05:50:49.650Z,999.2
2017-08-01T05:51:51.234Z,999.2
2017-08-01T05:52:52.746Z,999.2
2017-08-01T05:53:54.278Z,999.3
2017-08-01T05:54:55.809Z,999.4
2017-08-01T05:55:57.321Z,999.3
2017-08-01T05:56:58.837Z,999.3
2017-08-01T05:58:00.354Z,999.4
2017-08-01T05:59:01.888Z,999.3
2017-08-01T06:00:03.420Z,999.3
2017-08-01T06:01:04.914Z,999.2
2017-08-01T06:02:06.419Z,999.2
2017-08-01T06:03:07.940Z,999.2
2017-08-01T06:04:09.543Z,999.4
2017-08-01T06:05:11.053Z,999.4
2017-08-01T06:06:12.567Z,999.4
2017-08-01T06:07:13.990Z,999.4
2017-08-01T06:08:15.454Z,999.5
2017-08-01T06:09:16.988Z,999.6
2017-08-01T06:10:18.508Z,999.6
2017-08-01T06:11:20.021Z,999.6
2017-08-01T06:12:21.545Z,999.6
2017-08-01T06:13:23.056Z,999.5
2017-08-01T06:14:24.542Z,999.6
2017-08-01T06:15:26.079Z,999.6
2017-08-01T06:16:27.591Z,999.6
2017-08-01T06:17:29.042Z,999.7
2017-08-01T06:18:30.573Z,999.7
2017-08-01T06:19:32.192Z,999.7
2017-08-01T06:20:33.707Z,999.7
2017-08-01T06:21:35.223Z,999.7
2017-08-01T06:22:36.666Z,999.7
2017-08-01T06:23:38.187Z,999.8
2017-08-01T06:24:39.762Z,999.9
2017-08-01T06:25:41.288Z,1000.1
2017-08-01T06:26:42.804Z,1000.2
2017-08-01T06:27:44.340Z,1000.2
2017-08-01T06:28:45.823Z,1000.2
2017-08-01T06:29:47.334Z,1000.2
2017-08-01T06:30:48.861Z,1000.2
2017-08-01T06:31:50.376Z,1000.2
2017-08-01T06:32:51.889Z,1000.4
2017-08-01T06:33:53.429Z,1000.3
2017-08-01T06:34:54.934Z,1000.3
2017-08-01T06:35:56.466Z,1000.5
2017-08-01T06:36:58.050Z,1000.6
2017-08-01T06:37:59.599Z,1000.6
2017-08-01T06:39:01.114Z,1000.5
2017-08-01T06:40:02.641Z,1000.6
2017-08-01T06:41:04.033Z,1000.6
2017-08-01T06:42:05.614Z,1000.7
2017-08-01T06:43:07.150Z,1000.7
2017-08-01T06:44:08.658Z,1000.7
2017-08-01T06:45:10.097Z,1000.6
2017-08-01T06:46:11.635Z,1000.6
2017-08-01T06:47:13.076Z,1000.5
2017-08-01T06:48:14.601Z,1000.5
2017-08-01T06:49:16.106Z,1000.5
2017-08-01T06:50:17.546Z,1000.5
2017-08-01T06:51:19.047Z,1000.5
2017-08-01T06:52:20.565Z,1000.4
2017-08-01T06:53:22.075Z,1000.4
2017-08-01T06:54:23.743Z,1000.4
2017-08-01T06:55:25.179Z,1000.4
2017-08-01T06:56:26.641Z,1000.4
2017-08-01T06:57:28.186Z,1000.4
2017-08-01T06:58:29.704Z,1000.6
2017-08-01T06:59:31.226Z,1000.6
2017-08-01T07:00:32.654Z,1000.7
2017-08-01T07:01:34.163Z,1000.7
2017-08-01T07:02:35.701Z,1000.8
2017-08-01T07:03:37.209Z,1000.8
2017-08-01T07:04:38.724Z,1000.8
2017-08-01T07:05:40.232Z,1000.8
2017-08-01T07:06:41.743Z,1000.8
2017-08-01T07:07:43.406Z,1000.8
2017-08-01T07:08:44.937Z,1000.9
2017-08-01T07:09:46.432Z,1000.8
2017-08-01T07:10:47.955Z,1000.8
2017-08-01T07:11:49.470Z,1000.8
2017-08-01T07:12:50.998Z,1000.9
2017-08-01T07:13:52.525Z,1001.7
2017-08-01T07:14:54.152Z,1002.3
2017-08-01T07:15:55.684Z,1002.6
2017-08-01T07:16:57.192Z,1002.6
2017-08-01T07:17:58.719Z,1002.2
2017-08-01T07:19:00.111Z,1001.5
2017-08-01T07:20:01.702Z,1002.4
2017-08-01T07:21:03.233Z,1002.4
2017-08-01T07:22:04.750Z,1002.4
2017-08-01T07:23:06.275Z,1002.5
2017-08-01T07:24:07.796Z,1002.5
2017-08-01T07:25:09.327Z,1002.5
2017-08-01T07:26:10.844Z,1002.5
2017-08-01T07:27:12.473Z,1002.4
2017-08-01T07:28:14.011Z,1002.6
2017-08-01T07:29:15.527Z,1002.7
2017-08-01T07:30:17.038Z,1001.7
2017-08-01T07:31:18.563Z,1001.7
2017-08-01T07:32:20.105Z,1001.8
2017-08-01T07:33:21.606Z,1001.7
2017-08-01T07:34:23.221Z,1001.7
2017-08-01T07:35:24.754Z,1001.6
2017-08-01T07:36:26.278Z,1002.0
2017-08-01T07:37:27.799Z,1001.8
2017-08-01T07:38:29.234Z,1002.6
2017-08-01T07:39:30.711Z,1002.5
2017-08-01T07:40:32.243Z,1002.3
2017-08-01T07:41:33.773Z,1001.7
2017-08-01T07:42:35.213Z,1001.6
2017-08-01T07:43:36.728Z,1001.6
2017-08-01T07:44:38.434Z,1001.7
2017-08-01T07:45:39.980Z,1001.6
2017-08-01T07:46:41.458Z,1001.4
2017-08-01T07:47:43.036Z,1001.4
2017-08-01T07:48:44.556Z,1001.5
2017-08-01T07:49:46.021Z,1001.6
2017-08-01T07:50:47.509Z,1001.8
2017-08-01T07:51:49.148Z,1001.9
2017-08-01T07:52:50.674Z,1001.7
2017-08-01T07:53:52.188Z,1001.7
2017-08-01T07:54:53.696Z,1001.7
2017-08-01T07:55:55.221Z,1001.6
2017-08-01T07:56:56.736Z,1001.5
2017-08-01T07:57:58.287Z,1001.5
2017-08-01T07:58:59.894Z,1001.4
2017-08-01T08:00:01.504Z,1001.4
2017-08-01T08:01:02.992Z,1001.3
2017-08-01T08:02:04.538Z,1001.3
2017-08-01T08:03:06.054Z,1001.3
2017-08-01T08:04:07.500Z,1001.3
2017-08-01T08:05:09.015Z,1001.3
2017-08-01T08:06:10.547Z,1001.2
2017-08-01T08:07:12.068Z,1001.2
2017-08-01T08:08:13.597Z,1001.2
2017-08-01T08:09:15.041Z,1001.3
2017-08-01T08:10:16.546Z,1001.3
2017-08-01T08:11:18.065Z,1001.3
2017-08-01T08:12:19.587Z,1001.3
2017-08-01T08:13:21.102Z,1001.4
2017-08-01T08:14:22.611Z,1001.4
2017-08-01T08:15:24.130Z,1001.4
2017-08-01T08:16:25.784Z,1001.4
2017-08-01T08:17:27.302Z,1001.4
2017-08-01T08:18:28.816Z,1001.4
2017-08-01T08:19:30.345Z,1001.4
2017-08-01T08:20:31.851Z,1001.5
2017-08-01T08:21:33.386Z,1001.4
2017-08-01T08:22:34.904Z,1001.4
2017-08-01T08:23:36.594Z,1001.4
2017-08-01T08:24:38.102Z,1001.3
2017-08-01T08:25:39.625Z,1001.3
2017-08-01T08:26:41.133Z,1001.3
2017-08-01T08:27:42.683Z,1001.2
2017-08-01T08:28:44.199Z,1001.2
2017-08-01T08:29:45.717Z,1001.2
2017-08-01T08:30:47.347Z,1001.1
2017-08-01T08:31:48.911Z,1001.0
2017-08-01T08:32:50.439Z,1000.9
2017-08-01T08:33:51.962Z,1000.8
2017-08-01T08:34:53.469Z,1000.7
2017-08-01T08:35:54.904Z,1000.6
2017-08-01T08:36:56.409Z,1000.6
2017-08-01T08:37:57.918Z,1000.6
2017-08-01T08:38:59.426Z,1000.7
2017-08-01T08:40:00.932Z,1000.7
2017-08-01T08:41:02.441Z,1000.7
2017-08-01T08:42:03.955Z,1000.6
2017-08-01T08:43:05.459Z,1000.6
2017-08-01T08:44:06.976Z,1000.6
2017-08-01T08:45:08.363Z,1000.6
2017-08-01T08:46:09.979Z,1000.5
2017-08-01T08:47:11.492Z,1000.5
2017-08-01T08:48:12.998Z,1000.4
2017-08-01T08:49:14.431Z,1000.5
2017-08-01T08:50:15.936Z,1000.6
2017-08-01T08:51:17.498Z,1000.6
2017-08-01T08:52:19.015Z,1000.6
2017-08-01T08:53:20.522Z,1000.7
2017-08-01T08:54:21.957Z,1000.7
2017-08-01T08:55:23.425Z,1000.9
2017-08-01T08:56:25.064Z,1000.9
2017-08-01T08:57:26.570Z,1000.9
2017-08-01T08:58:28.102Z,1000.9
2017-08-01T08:59:29.526Z,1001.0
2017-08-01T09:00:31.026Z,1001.2
2017-08-01T09:01:32.639Z,1001.3
2017-08-01T09:02:34.175Z,1001.3
2017-08-01T09:03:35.681Z,1001.3
2017-08-01T09:04:37.197Z,1001.3
2017-08-01T09:05:38.712Z,1001.2
2017-08-01T09:06:40.230Z,1001.2
2017-08-01T09:07:41.756Z,1001.1
2017-08-01T09:08:43.416Z,1001.0
2017-08-01T09:09:44.926Z,1001.0
2017-08-01T09:10:46.446Z,1000.9
2017-08-01T09:11:47.949Z,1000.9
2017-08-01T09:12:49.457Z,1000.8
2017-08-01T09:13:50.964Z,1000.8
2017-08-01T09:14:52.489Z,1000.7
2017-08-01T09:15:54.002Z,1000.6
2017-08-01T09:16:55.506Z,1000.5
2017-08-01T09:17:57.007Z,1000.5
2017-08-01T09:18:58.527Z,1000.5
2017-08-01T09:20:00.017Z,1000.6
2017-08-01T09:21:01.529Z,1000.6
2017-08-01T09:22:03.045Z,1000.7
2017-08-01T09:23:04.437Z,1000.8
2017-08-01T09:24:06.029Z,1000.8
2017-08-01T09:25:07.551Z,1001.0
2017-08-01T09:26:09.052Z,1001.2
2017-08-01T09:27:10.491Z,1001.5
2017-08-01T09:28:12.025Z,1001.5
2017-08-01T09:29:13.484Z,1001.6
2017-08-01T09:30:15.005Z,1001.7
2017-08-01T09:31:16.521Z,1001.8
2017-08-01T09:32:17.947Z,1002.0
2017-08-01T09:33:19.472Z,1002.1
2017-08-01T09:34:20.988Z,1002.2
2017-08-01T09:35:22.508Z,1002.2
2017-08-01T09:36:24.015Z,1002.2
2017-08-01T09:37:25.541Z,1002.2
2017-08-01T09:38:27.049Z,1002.2
2017-08-01T09:39:28.677Z,1002.2
2017-08-01T09:40:30.194Z,1002.1
2017-08-01T09:41:31.719Z,1002.1
2017-08-01T09:42:33.145Z,1002.0
2017-08-01T09:43:34.666Z,1002.1
2017-08-01T09:44:36.236Z,1002.1
2017-08-01T09:45:37.747Z,1002.1
2017-08-01T09:46:39.277Z,1002.1
2017-08-01T09:47:40.704Z,1002.2
2017-08-01T09:48:42.208Z,1002.1
2017-08-01T09:49:43.783Z,1002.2
2017-08-01T09:50:45.293Z,1002.2
2017-08-01T09:51:46.816Z,1002.3
2017-08-01T09:52:48.359Z,1002.4
2017-08-01T09:53:49.755Z,1002.5
2017-08-01T09:54:51.398Z,1002.5
2017-08-01T09:55:52.904Z,1002.5
2017-08-01T09:56:54.410Z,1002.4
2017-08-01T09:57:55.916Z,1002.4
2017-08-01T09:58:57.435Z,1002.5
2017-08-01T09:59:58.969Z,1002.5
2017-08-01T10:01:00.494Z,1002.6
2017-08-01T10:02:02.140Z,1002.6
2017-08-01T10:03:03.660Z,1002.6
2017-08-01T10:04:05.159Z,1002.6
2017-08-01T10:05:06.686Z,1002.6
2017-08-01T10:06:08.205Z,1002.6
2017-08-01T10:07:09.726Z,1002.7
2017-08-01T10:08:11.243Z,1002.7
2017-08-01T10:09:12.910Z,1002.7
2017-08-01T10:10:14.482Z,1002.7
2017-08-01T10:11:15.994Z,1002.7
2017-08-01T10:12:17.529Z,1002.7
2017-08-01T10:13:19.040Z,1002.7
2017-08-01T10:14:20.482Z,1002.7
2017-08-01T10:15:22.006Z,1002.6
2017-08-01T10:16:23.525Z,1002.6
2017-08-01T10:17:25.044Z,1002.5
2017-08-01T10:18:26.552Z,1002.4
2017-08-01T10:19:28.072Z,1002.3
2017-08-01T10:20:29.588Z,1002.1
2017-08-01T10:21:31.224Z,1001.9
2017-08-01T10:22:32.747Z,1001.5
2017-08-01T10:23:34.259Z,1001.2
2017-08-01T10:24:35.788Z,1001.0
2017-08-01T10:25:37.322Z,1000.8
2017-08-01T10:26:38.837Z,1000.7
2017-08-01T10:27:40.354Z,1000.6
2017-08-01T10:28:41.976Z,1000.6
2017-08-01T10:29:43.483Z,1000.5
2017-08-01T10:30:45.013Z,1000.4
2017-08-01T10:31:46.543Z,1000.5
2017-08-01T10:32:47.929Z,1000.5
2017-08-01T10:33:49.540Z,1000.7
2017-08-01T10:34:51.083Z,1000.8
2017-08-01T10:35:52.602Z,1000.8
2017-08-01T10:36:54.119Z,1000.7
2017-08-01T10:37:55.636Z,1000.7
2017-08-01T10:38:57.190Z,1000.6
2017-08-01T10:39:58.720Z,1000.5
2017-08-01T10:41:00.360Z,1000.5
2017-08-01T10:42:01.901Z,1000.5
2017-08-01T10:43:03.459Z,1000.5
2017-08-01T10:44:04.973Z,1000.4
2017-08-01T10:45:06.501Z,1000.4
2017-08-01T10:46:07.934Z,1000.4
2017-08-01T10:47:09.451Z,1000.2
2017-08-01T10:48:11.144Z,1000.2
2017-08-01T10:49:12.667Z,1000.2
2017-08-01T10:50:14.294Z,1000.2
2017-08-01T10:51:15.817Z,1000.2
2017-08-01T10:52:17.339Z,1000.1
2017-08-01T10:53:18.859Z,1000.1
2017-08-01T10:54:20.234Z,1000.0
2017-08-01T10:55:21.855Z,1000.0
2017-08-01T10:56:23.382Z,999.9
2017-08-01T10:57:24.902Z,999.9
2017-08-01T10:58:26.410Z,999.9
2017-08-01T10:59:27.833Z,999.9
2017-08-01T11:00:29.282Z,999.8
2017-08-01T11:01:30.768Z,999.8
2017-08-01T11:02:32.272Z,999.7
2017-08-01T11:03:33.825Z,999.8
2017-08-01T11:04:35.345Z,999.8
2017-08-01T11:05:36.980Z,999.9
2017-08-01T11:06:38.495Z,999.9
2017-08-01T11:07:40.009Z,999.9
2017-08-01T11:08:41.520Z,1000.0
2017-08-01T11:09:43.062Z,1000.1
2017-08-01T11:10:44.559Z,1000.1
2017-08-01T11:11:46.070Z,1000.1
2017-08-01T11:12:47.620Z,1000.1
2017-08-01T11:13:49.254Z,1000.1
2017-08-01T11:14:50.766Z,1000.1
2017-08-01T11:15:52.293Z,1000.1
2017-08-01T11:16:53.708Z,1000.2
2017-08-01T11:17:55.158Z,1000.3
2017-08-01T11:18:56.694Z,1000.2
2017-08-01T11:19:58.205Z,1000.1
2017-08-01T11:20:59.646Z,1000.1
2017-08-01T11:22:01.167Z,1000.1
2017-08-01T11:23:02.679Z,1000.1
2017-08-01T11:24:04.198Z,1000.2
2017-08-01T11:25:05.739Z,1000.2
2017-08-01T11:26:07.265Z,1000.2
2017-08-01T11:27:08.808Z,1000.2
2017-08-01T11:28:10.386Z,1000.4
2017-08-01T11:29:11.912Z,1000.4
2017-08-01T11:30:13.417Z,1000.4
2017-08-01T11:31:14.931Z,1000.5
2017-08-01T11:32:16.338Z,1000.6
2017-08-01T11:33:17.920Z,1000.6
2017-08-01T11:34:19.444Z,1000.7
2017-08-01T11:35:20.961Z,1000.6
2017-08-01T11:36:22.482Z,1000.7
2017-08-01T11:37:23.994Z,1000.7
2017-08-01T11:38:25.493Z,1000.7
2017-08-01T11:39:27.011Z,1000.7
2017-08-01T11:40:28.523Z,1000.7
2017-08-01T11:41:30.038Z,1000.8
2017-08-01T11:42:31.409Z,1000.9
2017-08-01T11:43:33.128Z,1000.9
2017-08-01T11:44:34.635Z,1001.0
2017-08-01T11:45:36.133Z,1001.1
2017-08-01T11:46:37.655Z,1001.0
2017-08-01T11:47:39.177Z,1000.9
2017-08-01T11:48:40.612Z,1000.9
2017-08-01T11:49:42.124Z,1000.8
2017-08-01T11:50:43.644Z,1000.9
2017-08-01T11:51:45.162Z,1001.0
2017-08-01T11:52:46.663Z,1001.0
2017-08-01T11:53:48.178Z,1001.0
2017-08-01T11:54:49.703Z,1001.0
2017-08-01T11:55:51.231Z,1001.0
2017-08-01T11:56:52.748Z,1001.1
2017-08-01T11:57:54.259Z,1001.0
2017-08-01T11:58:55.770Z,1001.0
2017-08-01T11:59:57.296Z,1001.0
2017-08-01T12:00:58.878Z,1001.0
2017-08-01T12:02:00.415Z,1001.0
2017-08-01T12:03:01.954Z,1001.1
2017-08-01T12:04:03.469Z,1001.2
2017-08-01T12:05:04.972Z,1001.3
2017-08-01T12:06:06.523Z,1001.2
2017-08-01T12:07:08.033Z,1001.1
2017-08-01T12:08:09.736Z,1001.2
2017-08-01T12:09:11.255Z,1001.4
2017-08-01T12:10:12.827Z,1001.3
2017-08-01T12:11:14.338Z,1001.4
2017-08-01T12:12:15.882Z,1001.5
2017-08-01T12:13:17.477Z,1001.3
2017-08-01T12:14:18.991Z,1001.4
2017-08-01T12:15:20.497Z,1001.5
2017-08-01T12:16:22.013Z,1001.5
2017-08-01T12:17:23.853Z,1001.5
2017-08-01T12:18:25.539Z,1001.5
2017-08-01T12:19:26.999Z,1001.4
2017-08-01T12:20:28.631Z,1001.4
2017-08-01T12:21:30.348Z,1001.5
2017-08-01T12:22:32.138Z,1001.4
2017-08-01T12:23:33.681Z,1001.4
2017-08-01T12:24:35.371Z,1001.4
2017-08-01T12:25:36.920Z,1001.3
2017-08-01T12:26:38.457Z,1001.3
2017-08-01T12:27:39.885Z,1001.4
2017-08-01T12:28:41.351Z,1001.4
2017-08-01T12:29:42.979Z,1001.5
2017-08-01T12:30:44.489Z,1001.6
2017-08-01T12:31:46.025Z,1001.5
2017-08-01T12:32:47.543Z,1001.6
2017-08-01T12:33:48.971Z,1001.6
2017-08-01T12:34:50.427Z,1001.6
2017-08-01T12:35:51.958Z,1001.6
2017-08-01T12:36:53.484Z,1001.6
2017-08-01T12:37:54.917Z,1001.6
2017-08-01T12:38:56.460Z,1001.5
2017-08-01T12:39:58.129Z,1001.6
2017-08-01T12:40:59.648Z,1001.5
2017-08-01T12:42:01.167Z,1001.5
2017-08-01T12:43:02.678Z,1001.5
2017-08-01T12:44:04.192Z,1001.5
2017-08-01T12:45:05.719Z,1001.6
2017-08-01T12:46:07.246Z,1001.7
2017-08-01T12:47:08.874Z,1001.6
2017-08-01T12:48:10.413Z,1001.6
2017-08-01T12:49:11.918Z,1001.7
2017-08-01T12:50:13.422Z,1001.7
2017-08-01T12:51:14.945Z,1001.6
2017-08-01T12:52:16.478Z,1001.6
2017-08-01T12:53:18.031Z,1001.5
2017-08-01T12:54:19.635Z,1001.5
2017-08-01T12:55:21.237Z,1001.4